Caraquet, Canada
Current Conditions -  °F | °C
As of 6:00 PM on Friday 31 Oct 2014 (Local Time) from CZBF Reporting Station
Broken Clouds Broken Clouds  
Wind Chill:   Ceiling: 5000
Heat Index:   Visibility: 15mi
Dew Point: -3°   Wind: 6mph
Humidity: 53%   Direction: 260°W
Pressure: 30.09"   Gusts: NA
Location:  47.78°N, 64.95°W
Report Text: CZBF 312100Z 26005KT 15SM FEW025 BKN050 06/M03 A3009 RMK SC1SC6 SLP193
Loading
Personal Weather Stations






























Interactive Weather Map
Tropical Storm Tracking
New forecast layout! Learn more

10-Day Weather Forecast

Advertisements
Track Severe Weather on mobile